Time;durP1;ratioP1;P1;durP2;ratioP2;P2;SDS_P1;SDS_P2;PMS_P1;PMS_P2;Temp;Humidity;BMP_temperature;BMP_pressure;BME280_temperature;BME280_humidity;BME280_pressure;Samples;Min_cycle;Max_cycle;Signal;HPM_P1;HPM_P2
2021/11/02 00:02:10;;;;;;;7.27;4.87;;;;;;;12.61;85.18;99566.84;5055134;28;20171;-68
2021/11/02 00:04:36;;;;;;;7.73;4.87;;;;;;;12.78;84.70;99558.28;5072173;28;20195;-68
2021/11/02 00:07:01;;;;;;;9.43;5.07;;;;;;;12.51;85.09;99549.84;5055376;28;20172;-68
2021/11/02 00:09:30;;;;;;;8.53;4.80;;;;;;;12.92;84.22;99564.34;5056775;28;20233;-68
2021/11/02 00:11:55;;;;;;;7.70;4.83;;;;;;;12.61;84.18;99555.28;5056180;28;20199;-68
2021/11/02 00:14:23;;;;;;;6.30;4.50;;;;;;;12.66;84.39;99553.97;5056143;28;20207;-68
2021/11/02 00:16:54;;;;;;;9.50;5.20;;;;;;;12.54;85.23;99560.28;5056295;28;20168;-68
2021/11/02 00:19:20;;;;;;;8.70;5.13;;;;;;;12.99;83.54;99549.44;5056717;28;20155;-68
2021/11/02 00:21:47;;;;;;;10.00;5.63;;;;;;;12.71;84.42;99551.75;5056163;28;20175;-69
2021/11/02 00:26:56;;;;;;;7.17;5.33;;;;;;;12.50;84.53;99551.66;5057000;28;20167;-68
2021/11/02 00:29:21;;;;;;;7.77;4.70;;;;;;;12.69;84.67;99552.84;5038005;28;20168;-68
2021/11/02 00:31:47;;;;;;;8.27;5.20;;;;;;;12.83;83.27;99547.22;5055424;28;20195;-67
2021/11/02 00:34:12;;;;;;;7.40;5.27;;;;;;;12.53;84.71;99545.19;5054212;28;20198;-69
2021/11/02 00:36:37;;;;;;;8.87;5.00;;;;;;;12.35;84.76;99544.88;5055832;28;20558;-69
2021/11/02 00:39:04;;;;;;;11.13;4.87;;;;;;;12.67;83.66;99544.94;5055555;28;20175;-69
2021/11/02 00:41:29;;;;;;;8.37;4.67;;;;;;;12.64;83.85;99544.34;5054872;28;20164;-69
2021/11/02 00:43:56;;;;;;;10.77;5.53;;;;;;;12.67;84.52;99550.31;5060070;28;20635;-69
2021/11/02 00:46:30;;;;;;;6.53;4.80;;;;;;;12.76;83.83;99552.22;5061730;28;20199;-69
2021/11/02 00:48:56;;;;;;;10.60;5.37;;;;;;;12.73;83.96;99555.16;5069940;28;20159;-69
2021/11/02 00:51:21;;;;;;;9.33;5.23;;;;;;;12.58;83.90;99543.00;5053918;28;20194;-69
2021/11/02 00:53:47;;;;;;;9.43;4.77;;;;;;;12.70;83.78;99544.69;5055385;28;20180;-69
2021/11/02 00:56:12;;;;;;;7.80;4.87;;;;;;;12.52;84.57;99543.50;5055175;28;20188;-69
2021/11/02 00:58:37;;;;;;;9.00;4.90;;;;;;;12.71;83.56;99535.69;5055241;28;20577;-69
2021/11/02 01:01:03;;;;;;;8.30;4.53;;;;;;;12.81;83.43;99541.13;5055229;28;20206;-69
2021/11/02 01:03:28;;;;;;;7.87;4.70;;;;;;;12.81;82.75;99533.94;5037199;28;20207;-69
2021/11/02 01:05:53;;;;;;;9.50;4.93;;;;;;;12.82;82.92;99538.31;5054960;28;20191;-69
2021/11/02 01:08:18;;;;;;;8.53;5.17;;;;;;;12.92;82.96;99535.72;5053568;28;20168;-69
2021/11/02 01:10:47;;;;;;;7.37;4.60;;;;;;;12.72;82.97;99537.38;5054782;28;20225;-68
2021/11/02 01:13:12;;;;;;;6.90;4.50;;;;;;;12.57;83.81;99525.25;5054742;28;20579;-68
2021/11/02 01:15:38;;;;;;;6.90;4.70;;;;;;;12.77;83.10;99532.50;5053593;28;20221;-68
2021/11/02 01:18:03;;;;;;;11.23;5.27;;;;;;;12.82;82.73;99526.75;5055081;28;20527;-68
2021/11/02 01:20:28;;;;;;;7.97;4.83;;;;;;;12.73;83.81;99533.72;5055528;28;20195;-68
2021/11/02 01:22:54;;;;;;;8.10;4.73;;;;;;;12.61;83.42;99523.16;5053375;28;20647;-68
2021/11/02 01:25:21;;;;;;;7.33;4.53;;;;;;;12.73;83.08;99517.66;5053599;28;20286;-68
2021/11/02 01:27:46;;;;;;;9.93;5.03;;;;;;;12.66;83.06;99513.81;5053893;28;20178;-68
2021/11/02 01:30:13;;;;;;;7.87;4.63;;;;;;;12.68;82.82;99514.53;5053753;28;20180;-68
2021/11/02 01:32:39;;;;;;;9.17;5.00;;;;;;;12.63;83.85;99499.78;5054256;28;20191;-68
2021/11/02 01:35:05;;;;;;;9.33;5.27;;;;;;;12.33;85.33;99511.19;5054371;28;20187;-68
2021/11/02 01:37:34;;;;;;;9.63;5.00;;;;;;;12.33;84.55;99504.03;5053069;28;20180;-68
2021/11/02 01:39:59;;;;;;;8.23;5.00;;;;;;;12.83;82.96;99513.25;5052873;28;20258;-68
2021/11/02 01:42:26;;;;;;;9.17;5.30;;;;;;;12.88;83.12;99509.34;5053227;28;20512;-68
2021/11/02 01:44:53;;;;;;;7.83;5.07;;;;;;;12.92;82.69;99506.28;5053914;28;20211;-68
2021/11/02 01:47:20;;;;;;;11.53;4.57;;;;;;;12.54;84.55;99504.09;5054283;28;20181;-68
2021/11/02 01:49:45;;;;;;;9.87;4.60;;;;;;;12.59;83.60;99499.19;5054549;28;20643;-68
2021/11/02 01:52:11;;;;;;;10.40;5.80;;;;;;;12.33;85.19;99503.19;5053055;28;20187;-67
2021/11/02 01:54:37;;;;;;;9.97;5.57;;;;;;;12.56;85.36;99498.59;5070363;28;20187;-67
2021/11/02 01:57:03;;;;;;;9.00;5.57;;;;;;;12.27;86.40;99498.31;5052474;28;20180;-67
2021/11/02 01:59:31;;;;;;;10.83;5.43;;;;;;;12.47;85.47;99500.22;5055897;28;20531;-68
2021/11/02 02:02:30;;;;;;;9.30;5.30;;;;;;;12.37;86.71;99509.97;5052733;28;20191;-69
2021/11/02 02:05:15;;;;;;;10.47;5.70;;;;;;;12.24;87.68;99498.53;5015399;28;20280;-67
2021/11/02 02:08:05;;;;;;;9.63;6.03;;;;;;;12.39;87.10;99502.66;5052382;28;20539;-69
2021/11/02 02:11:08;;;;;;;11.00;6.20;;;;;;;12.65;85.77;99496.03;5052154;28;20258;-67
2021/11/02 02:13:51;;;;;;;10.40;6.03;;;;;;;12.69;85.66;99493.97;5053596;28;20183;-67
2021/11/02 02:16:20;;;;;;;14.90;6.97;;;;;;;12.44;87.36;99495.13;5053936;28;20270;-68
2021/11/02 02:18:57;;;;;;;12.97;7.00;;;;;;;12.18;88.36;99495.41;5052233;28;20240;-68
2021/11/02 02:22:01;;;;;;;9.13;6.80;;;;;;;12.48;87.40;99496.56;5053985;28;20181;-68
2021/11/02 02:24:50;;;;;;;9.80;6.70;;;;;;;12.46;87.90;99501.19;5053106;28;20281;-67
2021/11/02 02:27:29;;;;;;;8.73;6.00;;;;;;;12.52;86.97;99498.84;5053910;28;20203;-69
2021/11/02 02:29:55;;;;;;;10.63;6.47;;;;;;;12.53;87.23;99499.72;5052241;28;20179;-68
2021/11/02 02:32:24;;;;;;;17.87;7.63;;;;;;;12.29;88.05;99491.88;5052078;28;20541;-68
2021/11/02 02:34:53;;;;;;;8.63;7.17;;;;;;;12.46;87.60;99491.34;5052031;28;20192;-69
2021/11/02 02:37:20;;;;;;;12.27;7.77;;;;;;;12.10;89.13;99486.28;5068768;28;20180;-68
2021/11/02 02:39:46;;;;;;;11.50;7.33;;;;;;;12.41;87.64;99484.66;5052295;28;20175;-70
2021/11/02 02:42:13;;;;;;;13.97;7.67;;;;;;;12.42;87.32;99486.38;5053398;28;20254;-68
2021/11/02 02:44:40;;;;;;;12.07;7.93;;;;;;;12.16;87.95;99485.78;5053141;28;20210;-67
2021/11/02 02:47:06;;;;;;;11.83;7.93;;;;;;;12.41;87.99;99492.69;5051911;28;20320;-69
2021/11/02 02:49:32;;;;;;;9.87;7.60;;;;;;;12.21;87.88;99489.78;5051951;28;20258;-69
2021/11/02 02:51:59;;;;;;;14.03;8.17;;;;;;;12.38;87.87;99485.78;5035138;28;20765;-67
2021/11/02 02:54:26;;;;;;;14.10;8.07;;;;;;;12.15;88.92;99484.94;5051783;28;20202;-67
2021/11/02 02:56:52;;;;;;;12.27;8.90;;;;;;;12.23;88.48;99489.66;5068556;28;20179;-67
2021/11/02 02:59:20;;;;;;;14.77;9.53;;;;;;;12.50;87.79;99491.94;5053030;28;20171;-69
2021/11/02 03:01:46;;;;;;;14.27;9.40;;;;;;;12.43;87.31;99488.06;5053242;28;20603;-68
2021/11/02 03:04:15;;;;;;;13.33;9.13;;;;;;;12.76;86.57;99489.78;5051580;28;20643;-68
2021/11/02 03:06:46;;;;;;;11.90;8.27;;;;;;;12.25;87.62;99484.19;5053215;28;20579;-69
2021/11/02 03:09:11;;;;;;;18.30;9.00;;;;;;;12.27;88.52;99490.31;5055484;28;20239;-68
2021/11/02 03:11:38;;;;;;;15.60;9.17;;;;;;;12.24;88.64;99490.53;5059096;28;20226;-68
2021/11/02 03:14:09;;;;;;;16.40;9.83;;;;;;;12.41;88.77;99500.72;5043048;28;20179;-67
2021/11/02 03:52:17;;;;;;;14.27;9.33;;;;;;;12.81;85.93;99501.81;5057464;28;20601;-68
2021/11/02 03:54:48;;;;;;;16.20;9.70;;;;;;;12.68;87.57;99503.81;5071337;28;20187;-69
2021/11/02 03:57:39;;;;;;;14.27;10.23;;;;;;;12.65;87.52;99496.03;5072281;28;20209;-69
2021/11/02 04:23:16;;;;;;;23.23;11.37;;;;;;;12.31;89.34;99494.44;5054419;28;20226;-68
2021/11/02 04:25:44;;;;;;;16.70;10.50;;;;;;;12.59;88.56;99485.81;5054272;28;20203;-68
2021/11/02 04:28:06;;;;;;;17.80;11.47;;;;;;;12.40;88.78;99483.81;5054139;28;20666;-69
2021/11/02 04:36:30;;;;;;;14.63;11.20;;;;;;;12.52;88.47;99481.94;5057487;28;20708;-68
2021/11/02 05:09:00;;;;;;;14.47;11.03;;;;;;;12.00;91.75;99470.16;5053743;28;20202;-74
2021/11/02 05:47:10;;;;;;;27.37;18.03;;;;;;;12.02;91.40;99462.00;5053103;28;20173;-74
2021/11/02 05:57:31;;;;;;;24.50;16.77;;;;;;;12.00;91.65;99459.44;5054001;28;20179;-73
2021/11/02 06:00:02;;;;;;;30.03;20.20;;;;;;;12.05;92.23;99446.56;5036458;28;20190;-74
2021/11/02 06:02:49;;;;;;;33.57;21.40;;;;;;;11.93;92.09;99441.34;5052232;28;20282;-74
2021/11/02 06:11:29;;;;;;;24.30;16.33;;;;;;;12.03;91.82;99461.03;5053489;28;20315;-74
2021/11/02 06:28:02;;;;;;;13.63;9.53;;;;;;;11.37;94.51;99466.19;5066102;28;20169;-67
2021/11/02 06:30:41;;;;;;;17.00;10.70;;;;;;;11.80;93.82;99468.19;5052721;28;20159;-65
2021/11/02 06:33:17;;;;;;;14.40;10.00;;;;;;;11.39;93.88;99448.22;5053016;28;20200;-65
2021/11/02 06:36:06;;;;;;;14.03;9.43;;;;;;;11.53;94.40;99445.34;5051600;28;20654;-65
2021/11/02 06:47:00;;;;;;;11.53;7.83;;;;;;;11.47;92.34;99440.44;5053276;28;20313;-68
2021/11/02 06:55:26;;;;;;;11.30;7.57;;;;;;;11.54;92.88;99451.53;5052578;28;20699;-73
2021/11/02 07:00:42;;;;;;;14.70;9.30;;;;;;;11.23;92.94;99453.06;5053951;28;20170;-73
2021/11/02 07:19:57;;;;;;;17.03;10.73;;;;;;;11.82;92.23;99466.25;5052708;28;20185;-73
2021/11/02 07:28:04;;;;;;;19.67;11.00;;;;;;;11.67;92.82;99456.75;5053120;28;20163;-73
2021/11/02 08:45:51;;;;;;;14.83;10.17;;;;;;;13.19;84.46;99438.84;5054918;28;20214;-72
2021/11/02 08:48:17;;;;;;;15.40;10.67;;;;;;;13.26;83.35;99428.44;5054619;28;20167;-71
2021/11/02 08:50:50;;;;;;;17.40;10.80;;;;;;;13.15;85.04;99438.22;5054491;28;20178;-72
2021/11/02 08:53:15;;;;;;;19.30;10.90;;;;;;;13.09;85.23;99435.22;5053448;28;20673;-73
2021/11/02 08:55:42;;;;;;;13.73;10.43;;;;;;;13.13;84.93;99442.88;5036453;28;20196;-73
2021/11/02 08:58:07;;;;;;;13.97;10.17;;;;;;;13.58;83.59;99447.94;5053229;28;20184;-73
2021/11/02 09:00:34;;;;;;;15.13;10.37;;;;;;;13.11;84.63;99430.59;5054312;28;20179;-73
2021/11/02 09:03:19;;;;;;;13.20;10.00;;;;;;;13.35;84.25;99441.03;5036382;28;20176;-73
2021/11/02 09:05:50;;;;;;;13.90;10.70;;;;;;;13.33;83.25;99441.19;5054102;28;20191;-73
2021/11/02 09:08:16;;;;;;;12.53;9.53;;;;;;;13.69;82.64;99455.06;5036865;28;20168;-73
2021/11/02 09:10:42;;;;;;;11.03;8.97;;;;;;;13.76;81.73;99442.81;5053395;28;20613;-73
2021/11/02 09:13:09;;;;;;;10.87;8.77;;;;;;;13.69;81.92;99455.06;5054329;28;20352;-72
2021/11/02 09:15:36;;;;;;;12.47;8.70;;;;;;;13.14;83.50;99443.72;5054040;28;20274;-73
2021/11/02 09:18:09;;;;;;;9.50;7.80;;;;;;;13.41;82.68;99448.56;5036383;28;20568;-73
2021/11/02 09:20:39;;;;;;;10.90;8.00;;;;;;;13.58;82.76;99447.09;5053025;28;20168;-73
2021/11/02 09:23:06;;;;;;;10.13;7.97;;;;;;;13.57;82.70;99448.94;5053205;28;20198;-73
2021/11/02 09:25:32;;;;;;;11.00;8.23;;;;;;;13.99;81.97;99449.66;5069566;28;20779;-73
2021/11/02 09:27:57;;;;;;;9.90;8.00;;;;;;;13.97;81.19;99448.09;5053049;28;20630;-73
2021/11/02 09:30:24;;;;;;;10.17;7.03;;;;;;;13.24;83.90;99439.28;5052286;28;20286;-73
2021/11/02 09:32:51;;;;;;;7.97;7.17;;;;;;;13.73;82.42;99440.38;5052093;28;20328;-73
2021/11/02 09:35:18;;;;;;;8.00;6.73;;;;;;;13.47;81.99;99434.63;5052054;28;20195;-71
2021/11/02 09:37:56;;;;;;;10.97;5.93;;;;;;;13.77;81.80;99439.16;5052043;28;20186;-73
2021/11/02 09:40:30;;;;;;;9.47;6.40;;;;;;;13.72;81.86;99438.69;5068835;28;20160;-72
2021/11/02 09:43:26;;;;;;;6.90;5.87;;;;;;;13.91;81.60;99441.47;5053253;28;20211;-73
2021/11/02 09:46:27;;;;;;;5.80;5.07;;;;;;;13.76;81.40;99430.28;5051937;28;20203;-72
2021/11/02 09:49:27;;;;;;;6.60;4.57;;;;;;;13.85;80.87;99425.91;5053611;28;20160;-72
2021/11/02 09:52:16;;;;;;;6.13;5.10;;;;;;;13.34;83.69;99424.13;5034992;28;20203;-73
2021/11/02 09:55:16;;;;;;;6.17;4.63;;;;;;;13.24;82.60;99420.53;5053235;28;20207;-73
2021/11/02 09:58:13;;;;;;;5.97;4.60;;;;;;;13.75;81.93;99433.06;5053156;28;20171;-72
2021/11/02 10:00:58;;;;;;;5.27;4.33;;;;;;;13.39;81.99;99429.94;5052980;28;20221;-72
2021/11/02 10:03:53;;;;;;;3.63;3.20;;;;;;;13.72;81.14;99434.19;5053570;28;20156;-70
2021/11/02 10:06:27;;;;;;;6.27;4.10;;;;;;;13.67;81.28;99430.22;5035116;28;20261;-72
2021/11/02 10:09:17;;;;;;;5.00;4.13;;;;;;;13.56;81.47;99425.78;5053541;28;20151;-72
2021/11/02 10:12:20;;;;;;;5.13;3.70;;;;;;;13.11;83.33;99428.75;5053266;28;20222;-72
2021/11/02 10:14:54;;;;;;;4.77;3.73;;;;;;;13.68;81.13;99429.22;5052045;28;20164;-73
2021/11/02 10:17:43;;;;;;;6.50;4.60;;;;;;;13.73;80.38;99427.81;5053257;28;20654;-70
2021/11/02 10:20:10;;;;;;;4.20;3.57;;;;;;;13.29;81.49;99414.78;5053456;28;20753;-73
2021/11/02 10:22:49;;;;;;;4.33;3.67;;;;;;;13.83;79.46;99425.22;5052960;28;20225;-73
2021/11/02 10:25:22;;;;;;;6.90;4.27;;;;;;;13.84;80.15;99428.75;5053343;28;20195;-74
2021/11/02 10:28:05;;;;;;;4.60;3.53;;;;;;;13.59;80.14;99419.31;5053296;28;20179;-72
2021/11/02 10:30:34;;;;;;;5.33;3.70;;;;;;;13.72;80.48;99431.50;5052920;28;20247;-72
2021/11/02 10:33:13;;;;;;;5.00;4.50;;;;;;;13.71;79.86;99420.91;5068597;28;20192;-74
2021/11/02 10:36:11;;;;;;;6.77;4.83;;;;;;;13.55;80.43;99423.25;5053341;28;20195;-74
2021/11/02 10:38:44;;;;;;;5.10;4.30;;;;;;;13.71;81.25;99428.94;5008435;28;20187;-72
2021/11/02 10:41:13;;;;;;;6.70;5.03;;;;;;;13.92;79.90;99435.13;5068178;28;20160;-72
2021/11/02 10:43:57;;;;;;;6.97;5.53;;;;;;;13.18;81.82;99426.44;5035383;28;20206;-74
2021/11/02 10:46:25;;;;;;;7.67;5.67;;;;;;;13.50;81.63;99433.53;5074142;22;20223;-70
2021/11/02 10:48:50;;;;;;;10.77;5.67;;;;;;;14.06;78.95;99432.03;5068656;28;20179;-69
2021/11/02 10:51:39;;;;;;;8.20;6.30;;;;;;;13.75;80.62;99435.72;5053484;28;20183;-69
2021/11/02 10:54:29;;;;;;;9.77;7.27;;;;;;;13.93;80.43;99428.75;5035387;28;20172;-70
2021/11/02 10:57:33;;;;;;;9.37;6.83;;;;;;;14.31;79.58;99440.56;5051933;28;20207;-70
2021/11/02 11:00:06;;;;;;;7.87;6.67;;;;;;;14.56;78.46;99431.19;5033757;28;20512;-70
2021/11/02 11:02:32;;;;;;;9.00;7.63;;;;;;;13.96;80.01;99433.00;5031989;28;20172;-70
2021/11/02 11:04:59;;;;;;;12.57;8.00;;;;;;;14.24;78.05;99426.03;5032890;28;20234;-70
2021/11/02 11:07:35;;;;;;;10.50;7.90;;;;;;;14.43;78.38;99428.75;5031802;28;20172;-70
2021/11/02 11:10:02;;;;;;;11.93;8.03;;;;;;;14.46;78.19;99424.94;5033480;28;20168;-69
2021/11/02 11:12:31;;;;;;;10.13;7.50;;;;;;;14.33;79.16;99423.34;5032273;28;20583;-69
2021/11/02 11:14:59;;;;;;;10.03;7.10;;;;;;;14.32;78.53;99415.44;5032036;28;20278;-70
2021/11/02 11:17:27;;;;;;;16.90;10.83;;;;;;;14.67;77.60;99413.09;5033317;28;20195;-70
2021/11/02 11:20:10;;;;;;;13.03;9.30;;;;;;;14.51;78.37;99415.50;5031951;28;20184;-70
2021/11/02 11:22:41;;;;;;;13.13;8.87;;;;;;;14.11;78.25;99401.25;5032086;28;20603;-70
2021/11/02 11:25:15;;;;;;;17.40;10.03;;;;;;;14.86;76.71;99412.22;5031752;28;20214;-70
2021/11/02 11:27:48;;;;;;;13.20;9.17;;;;;;;14.00;79.06;99400.41;5033071;28;20192;-70
2021/11/02 11:30:15;;;;;;;17.07;10.00;;;;;;;14.57;78.96;99406.03;5032818;28;20664;-69
2021/11/02 11:32:42;;;;;;;17.40;10.30;;;;;;;14.87;77.08;99413.94;5035529;28;20223;-69
2021/11/02 11:35:08;;;;;;;17.30;9.97;;;;;;;15.07;75.10;99409.38;5036492;28;20173;-69
2021/11/02 11:37:43;;;;;;;11.80;9.00;;;;;;;14.77;76.04;99402.34;5037152;28;20172;-69
2021/11/02 11:40:09;;;;;;;18.23;10.73;;;;;;;14.05;79.33;99391.94;5035587;28;20718;-69
2021/11/02 11:42:35;;;;;;;22.33;10.30;;;;;;;13.56;81.54;99398.97;5035520;28;20247;-71
2021/11/02 11:45:21;;;;;;;16.20;11.07;;;;;;;14.16;79.68;99404.41;5035113;28;20215;-70
2021/11/02 11:47:47;;;;;;;16.00;11.07;;;;;;;14.42;78.28;99402.88;5035472;28;20164;-70
2021/11/02 11:50:19;;;;;;;18.30;11.77;;;;;;;14.36;78.54;99398.06;5035548;28;20635;-69
2021/11/02 11:52:50;;;;;;;18.93;11.60;;;;;;;14.64;77.52;99402.63;5036661;28;20246;-70
2021/11/02 11:55:24;;;;;;;17.53;11.80;;;;;;;14.72;77.50;99393.03;5036000;28;20204;-70
2021/11/02 11:58:25;;;;;;;19.57;11.67;;;;;;;14.83;77.59;99396.41;5036428;28;20164;-70
2021/11/02 12:01:08;;;;;;;15.00;11.07;;;;;;;15.29;75.02;99395.63;5032846;28;20211;-69
2021/11/02 12:04:04;;;;;;;16.63;10.87;;;;;;;15.04;76.25;99398.94;5038077;28;20247;-71
2021/11/02 12:06:37;;;;;;;19.00;10.53;;;;;;;15.09;75.20;99401.19;5036419;28;20200;-69
2021/11/02 12:09:16;;;;;;;21.63;11.97;;;;;;;14.98;75.17;99394.13;5044320;28;20160;-70
2021/11/02 12:11:43;;;;;;;22.13;10.63;;;;;;;14.91;76.22;99393.88;5045095;28;20200;-69
2021/11/02 12:14:10;;;;;;;16.07;10.73;;;;;;;15.18;74.68;99387.72;5037232;28;20176;-70
2021/11/02 12:16:41;;;;;;;16.90;10.37;;;;;;;14.81;75.09;99381.41;5036787;28;20196;-69
2021/11/02 12:19:12;;;;;;;16.40;10.67;;;;;;;14.81;75.61;99386.78;5036147;28;20177;-70
2021/11/02 12:21:39;;;;;;;20.20;11.53;;;;;;;14.54;77.12;99382.16;5037196;28;20153;-70
2021/11/02 12:24:08;;;;;;;16.10;11.43;;;;;;;15.13;74.43;99390.00;5036561;28;20201;-70
2021/11/02 12:26:47;;;;;;;17.33;11.17;;;;;;;14.44;77.44;99382.13;5035245;28;20192;-70
2021/11/02 12:29:25;;;;;;;21.20;11.43;;;;;;;14.43;77.42;99382.28;5035520;28;20247;-71
2021/11/02 12:32:14;;;;;;;19.20;11.23;;;;;;;14.82;76.85;99393.84;5018717;28;20555;-71
2021/11/02 12:34:50;;;;;;;20.93;11.10;;;;;;;15.01;75.33;99388.47;5036486;28;20664;-68
2021/11/02 12:37:19;;;;;;;22.07;12.40;;;;;;;14.17;78.30;99376.59;5033468;28;20195;-70
2021/11/02 12:39:45;;;;;;;17.53;11.70;;;;;;;14.86;74.93;99384.50;5034855;28;20173;-69
2021/11/02 12:42:12;;;;;;;19.67;11.90;;;;;;;14.90;74.26;99383.25;5035470;28;20651;-70
2021/11/02 12:44:38;;;;;;;17.10;11.20;;;;;;;14.53;75.92;99383.16;5034752;28;20179;-69
2021/11/02 12:47:11;;;;;;;20.93;12.10;;;;;;;14.45;76.73;99380.28;5034354;28;20212;-69
2021/11/02 12:49:52;;;;;;;24.43;12.17;;;;;;;15.01;74.72;99391.16;5035345;28;20251;-69
2021/11/02 12:52:23;;;;;;;21.07;12.00;;;;;;;13.85;78.27;99368.75;5036060;28;20199;-70
2021/11/02 12:55:02;;;;;;;16.13;11.23;;;;;;;13.76;78.27;99370.44;5036062;28;20157;-69
2021/11/02 12:57:36;;;;;;;19.17;11.30;;;;;;;14.69;75.59;99386.09;5034620;28;20183;-69
2021/11/02 13:00:06;;;;;;;20.03;12.17;;;;;;;14.46;75.79;99374.78;5035494;28;20163;-68
2021/11/02 13:02:34;;;;;;;16.60;11.43;;;;;;;14.47;75.47;99371.09;5034543;28;20223;-69
2021/11/02 13:05:05;;;;;;;20.47;11.57;;;;;;;14.62;75.79;99382.28;5035839;28;20202;-69
2021/11/02 13:07:36;;;;;;;19.67;10.70;;;;;;;15.12;73.98;99388.28;5034349;28;20522;-69
2021/11/02 13:10:02;;;;;;;23.20;10.70;;;;;;;14.62;74.12;99372.41;5034717;28;20168;-70
2021/11/02 13:12:27;;;;;;;18.37;10.53;;;;;;;14.33;75.26;99375.03;5017723;28;20203;-70
2021/11/02 13:15:00;;;;;;;14.97;10.37;;;;;;;14.62;74.89;99380.44;5035226;28;20632;-70
2021/11/02 13:17:36;;;;;;;16.83;9.57;;;;;;;14.37;74.23;99378.28;5035208;28;20169;-69
2021/11/02 13:20:02;;;;;;;18.57;10.37;;;;;;;14.44;74.61;99376.75;5035485;28;20569;-69
2021/11/02 13:22:31;;;;;;;19.43;10.17;;;;;;;14.54;75.07;99385.69;5034094;28;20270;-69
2021/11/02 13:24:59;;;;;;;15.40;10.13;;;;;;;14.45;75.13;99378.47;5035390;28;20172;-69
2021/11/02 13:27:45;;;;;;;16.97;9.67;;;;;;;14.63;74.60;99382.16;5034384;28;20204;-70
2021/11/02 13:30:36;;;;;;;20.70;10.30;;;;;;;14.26;74.92;99375.75;5017157;28;20202;-69
2021/11/02 13:33:02;;;;;;;16.77;10.90;;;;;;;14.64;74.01;99377.63;5016926;28;20714;-69
2021/11/02 13:35:41;;;;;;;22.03;11.10;;;;;;;15.07;72.97;99379.81;5034838;28;20199;-70
2021/11/02 13:38:22;;;;;;;19.63;9.87;;;;;;;15.11;72.40;99383.06;5035102;28;20180;-69
2021/11/02 13:40:49;;;;;;;19.67;10.53;;;;;;;14.71;74.02;99373.38;5034458;28;20172;-69
2021/11/02 13:43:32;;;;;;;14.97;9.73;;;;;;;15.35;72.45;99387.97;5034802;28;20311;-69
2021/11/02 13:45:58;;;;;;;13.47;9.33;;;;;;;15.26;71.77;99387.00;5034434;28;20212;-69
2021/11/02 13:48:24;;;;;;;19.03;10.53;;;;;;;14.72;73.95;99374.22;5034544;28;20265;-71
2021/11/02 13:50:49;;;;;;;19.50;10.00;;;;;;;15.20;72.30;99379.50;5033081;28;20168;-68
2021/11/02 13:53:15;;;;;;;15.13;9.37;;;;;;;15.57;72.00;99392.97;5032107;28;20200;-69
2021/11/02 13:55:40;;;;;;;15.93;9.80;;;;;;;15.06;72.35;99382.66;5033049;28;20192;-69
2021/11/02 13:58:05;;;;;;;15.33;9.57;;;;;;;15.36;72.25;99390.50;5034229;28;20203;-69
2021/11/02 14:00:31;;;;;;;15.33;9.77;;;;;;;15.73;70.66;99395.06;5034046;28;20553;-69
2021/11/02 14:03:00;;;;;;;15.10;9.27;;;;;;;15.62;71.38;99390.75;5032849;28;20199;-70
2021/11/02 14:05:26;;;;;;;13.77;8.90;;;;;;;15.42;72.61;99386.38;5032488;28;20684;-68
2021/11/02 14:07:52;;;;;;;17.10;9.37;;;;;;;15.63;70.99;99395.97;5034199;28;20203;-70
2021/11/02 14:10:19;;;;;;;14.73;9.53;;;;;;;15.41;71.71;99388.22;5016251;28;20261;-69
2021/11/02 14:12:56;;;;;;;15.07;8.80;;;;;;;15.21;72.21;99382.03;5016044;28;20204;-69
2021/11/02 14:15:22;;;;;;;14.30;9.70;;;;;;;15.23;72.00;99387.28;5032621;28;20770;-70
2021/11/02 14:17:54;;;;;;;16.13;8.83;;;;;;;14.78;73.21;99379.03;5033481;28;20207;-71
2021/11/02 14:20:40;;;;;;;18.00;9.13;;;;;;;14.91;73.65;99393.03;5033676;28;20226;-70
2021/11/02 14:23:16;;;;;;;15.57;8.60;;;;;;;15.10;72.50;99389.44;5033822;28;20165;-69
2021/11/02 14:25:42;;;;;;;17.60;8.87;;;;;;;15.19;71.94;99383.19;5032939;28;20237;-69
2021/11/02 14:28:08;;;;;;;13.83;8.93;;;;;;;15.18;71.95;99378.81;5034003;28;20203;-69
2021/11/02 14:30:44;;;;;;;13.43;9.13;;;;;;;15.13;72.42;99375.72;5032573;28;20172;-69
2021/11/02 14:33:11;;;;;;;13.93;8.77;;;;;;;15.18;72.17;99376.97;5033686;28;20294;-69
2021/11/02 14:35:44;;;;;;;15.80;9.07;;;;;;;15.14;72.19;99375.56;5032569;28;20334;-70
2021/11/02 14:38:13;;;;;;;13.67;8.70;;;;;;;14.96;72.66;99369.25;5033869;28;20203;-70
2021/11/02 14:40:41;;;;;;;14.23;8.77;;;;;;;15.07;72.50;99379.81;5016035;28;20184;-69
2021/11/02 14:43:13;;;;;;;18.20;8.80;;;;;;;15.14;72.04;99374.72;5033722;28;20175;-69
2021/11/02 14:45:43;;;;;;;11.90;7.67;;;;;;;15.00;72.56;99371.50;5032367;28;20208;-69
2021/11/02 14:48:27;;;;;;;13.87;8.27;;;;;;;15.03;72.20;99367.69;5035553;28;20636;-70
2021/11/02 14:51:06;;;;;;;16.73;8.03;;;;;;;15.05;71.98;99373.75;5037360;28;20180;-70
2021/11/02 14:53:36;;;;;;;13.53;8.27;;;;;;;14.98;72.83;99373.50;5040192;28;20200;-68
2021/11/02 14:56:06;;;;;;;11.67;7.27;;;;;;;14.95;72.99;99372.94;5035346;28;20188;-70
2021/11/02 14:58:41;;;;;;;13.83;7.50;;;;;;;14.95;72.71;99379.16;5033943;28;20175;-70
2021/11/02 15:01:26;;;;;;;14.37;7.73;;;;;;;14.99;73.07;99374.34;5032568;28;20190;-70
2021/11/02 15:03:58;;;;;;;15.73;8.17;;;;;;;14.63;74.28;99374.09;5034334;28;20603;-69
2021/11/02 15:06:45;;;;;;;13.33;8.53;;;;;;;14.86;73.32;99373.78;5036848;28;20284;-69
2021/11/02 15:09:17;;;;;;;13.07;7.73;;;;;;;14.75;73.15;99373.94;5037756;28;20169;-69
2021/11/02 15:11:46;;;;;;;14.90;8.30;;;;;;;14.69;73.30;99373.53;5036638;28;20241;-70
2021/11/02 15:14:20;;;;;;;11.57;7.90;;;;;;;14.82;72.74;99372.38;5037264;28;20226;-69
2021/11/02 15:16:54;;;;;;;14.00;7.43;;;;;;;14.81;72.88;99376.88;5036130;28;20199;-69
2021/11/02 15:19:22;;;;;;;12.80;8.27;;;;;;;14.74;73.05;99377.59;5037190;28;20172;-70
2021/11/02 15:21:54;;;;;;;12.90;8.33;;;;;;;14.70;73.42;99379.72;5035890;28;20164;-70
2021/11/02 15:24:20;;;;;;;13.50;8.00;;;;;;;14.37;74.10;99378.28;5035875;28;20751;-69
2021/11/02 15:27:04;;;;;;;13.07;7.70;;;;;;;14.37;74.88;99372.91;5035737;28;20195;-68
2021/11/02 15:29:32;;;;;;;17.33;8.37;;;;;;;14.18;75.34;99372.91;5037171;28;20197;-70
2021/11/02 15:32:03;;;;;;;14.67;8.10;;;;;;;14.16;75.64;99374.91;5036714;28;20250;-71
2021/11/02 15:34:40;;;;;;;21.87;8.53;;;;;;;14.11;75.85;99380.66;5036695;28;20172;-71
2021/11/02 15:37:07;;;;;;;16.03;8.60;;;;;;;14.20;76.09;99385.22;5035908;28;20246;-72
2021/11/02 15:39:33;;;;;;;11.50;7.43;;;;;;;14.25;75.95;99384.78;5019178;28;20188;-69
2021/11/02 15:41:58;;;;;;;14.93;8.03;;;;;;;14.23;76.44;99381.38;5036105;28;20176;-70
2021/11/02 15:44:27;;;;;;;14.63;8.90;;;;;;;14.21;77.58;99381.53;5019043;28;20173;-69
2021/11/02 15:46:53;;;;;;;16.30;8.30;;;;;;;14.07;77.82;99380.06;5019810;28;20212;-70
2021/11/02 15:49:24;;;;;;;18.23;7.73;;;;;;;14.18;77.49;99386.34;5041014;28;20532;-70
2021/11/02 15:51:57;;;;;;;14.23;7.80;;;;;;;13.86;77.38;99378.50;5039933;28;20672;-70
2021/11/02 15:54:26;;;;;;;14.97;7.23;;;;;;;14.08;76.85;99388.97;5038314;28;20164;-68
2021/11/02 15:56:53;;;;;;;10.93;6.87;;;;;;;14.06;76.51;99381.06;5036836;28;20282;-70
2021/11/02 15:59:23;;;;;;;12.20;7.47;;;;;;;13.89;77.03;99384.44;5036074;28;20659;-69
2021/11/02 16:01:50;;;;;;;12.30;8.07;;;;;;;13.80;76.42;99382.56;5036392;28;20675;-69
2021/11/02 16:04:24;;;;;;;16.03;7.70;;;;;;;14.24;75.94;99393.81;5019825;28;20234;-69
2021/11/02 16:06:58;;;;;;;14.57;8.80;;;;;;;14.32;75.71;99391.28;5035347;28;20199;-72
2021/11/02 16:09:42;;;;;;;17.67;10.00;;;;;;;14.23;76.27;99386.75;5034971;28;20183;-70
2021/11/02 16:12:20;;;;;;;13.07;7.67;;;;;;;14.15;76.50;99384.78;5037887;28;20277;-69
2021/11/02 16:15:14;;;;;;;13.90;7.93;;;;;;;13.97;77.00;99391.78;5050522;28;20172;-70
2021/11/02 16:17:46;;;;;;;14.30;8.47;;;;;;;14.08;76.31;99383.59;5044877;28;20199;-70
2021/11/02 16:20:23;;;;;;;14.00;9.13;;;;;;;13.87;77.20;99383.72;5038389;28;20190;-70
2021/11/02 16:22:48;;;;;;;19.10;9.43;;;;;;;13.67;77.92;99387.31;5039838;28;20160;-70
2021/11/02 16:25:14;;;;;;;16.10;10.13;;;;;;;13.62;78.42;99386.88;5041017;28;20196;-69